メインページ
METAR-TAF:

METAR-TAF

空港 :

ヌアクショット空港

ヌアクショット, モーリタニア

緯度: 18-18-36N, 経度: 015-58-11W, 海抜: 3m

現時点の気象観測

当レポートは28分前の00:00(UTC)に作成
の風 12kt
気温 19°C
湿度 73%
気圧 1013 hPa
視程10km以上
1,500メートル以下は雲なし、積乱雲なし

METAR: GQNO 150000Z 35012KT CAVOK 19/14 Q1013 NOSIG

時間: 00:28 (00:28 UTC)

予報

当レポートは1時間28分前の23:00(UTC)に作成
予報は15日の 00時(UTC)から 16日の 06時(UTC)まで有効
北/北西の風 10kt
視程: 8000m
15日の 09時(UTC)から 15日の 14時(UTC)まで一時的に
北東の風 8kt

TAF: GQNO 142300Z 1500/1606 34010KT 8000 NSC TEMPO 1509/1514 04008KT

4,000以上の空港の気象観測と天気予報(METAR報とTAF報)

利用可能な観測所は地図上に黄色い丸と赤い丸で示す。

丸の上にカーソルを重ねると観測所名を参照できる。

次にクリックすると気象観測と天気予報を参照できる。

マップの切り替え:黒色「×」印の緑ボタンをクリックして拡大、「-」印の緑ボタンをクリックして縮小、緑色の三角印をクリックして隣りの地図に切り替え


METAR-TAF: